sensor_id;sensor_type;location;lat;lon;timestamp;pressure;altitude;pressure_sealevel;temperature;humidity
59519;BME280;46994;54.976;73.404;2022-08-19T00:01:57;100881.47;;;10.83;65.30
59519;BME280;46994;54.976;73.404;2022-08-19T00:04:27;100878.75;;;10.75;65.56
59519;BME280;46994;54.976;73.404;2022-08-19T00:06:54;100883.28;;;10.75;66.11
59519;BME280;46994;54.976;73.404;2022-08-19T00:09:40;100878.56;;;10.69;65.30
59519;BME280;46994;54.976;73.404;2022-08-19T00:12:07;100872.34;;;10.68;65.96
59519;BME280;46994;54.976;73.404;2022-08-19T00:14:35;100895.06;;;10.82;65.66
59519;BME280;46994;54.976;73.404;2022-08-19T00:17:02;100886.63;;;10.77;65.27
59519;BME280;46994;54.976;73.404;2022-08-19T00:19:30;100887.47;;;10.77;65.13
59519;BME280;46994;54.976;73.404;2022-08-19T00:21:57;100897.81;;;10.64;66.00
59519;BME280;46994;54.976;73.404;2022-08-19T00:24:24;100907.22;;;10.68;66.51
59519;BME280;46994;54.976;73.404;2022-08-19T00:26:52;100905.41;;;10.77;66.60
59519;BME280;46994;54.976;73.404;2022-08-19T00:29:20;100894.78;;;10.59;66.40
59519;BME280;46994;54.976;73.404;2022-08-19T00:31:47;100899.97;;;10.60;66.99
59519;BME280;46994;54.976;73.404;2022-08-19T00:34:14;100899.06;;;10.86;66.24
59519;BME280;46994;54.976;73.404;2022-08-19T00:36:42;100894.25;;;10.98;65.46
59519;BME280;46994;54.976;73.404;2022-08-19T00:39:09;100891.97;;;11.35;64.88
59519;BME280;46994;54.976;73.404;2022-08-19T00:41:38;100904.41;;;11.44;64.04
59519;BME280;46994;54.976;73.404;2022-08-19T00:44:12;100902.06;;;11.41;64.13
59519;BME280;46994;54.976;73.404;2022-08-19T00:46:59;100908.22;;;11.26;64.78
59519;BME280;46994;54.976;73.404;2022-08-19T00:49:35;100900.34;;;11.40;64.19
59519;BME280;46994;54.976;73.404;2022-08-19T00:52:10;100890.97;;;11.36;63.67
59519;BME280;46994;54.976;73.404;2022-08-19T00:54:39;100882.22;;;11.26;64.16
59519;BME280;46994;54.976;73.404;2022-08-19T00:57:09;100894.31;;;11.46;63.78
59519;BME280;46994;54.976;73.404;2022-08-19T00:59:39;100886.44;;;11.45;63.46
59519;BME280;46994;54.976;73.404;2022-08-19T01:02:08;100893.84;;;11.43;63.58
59519;BME280;46994;54.976;73.404;2022-08-19T01:04:35;100901.38;;;11.47;63.68
59519;BME280;46994;54.976;73.404;2022-08-19T01:07:02;100876.19;;;11.16;63.99
59519;BME280;46994;54.976;73.404;2022-08-19T01:09:29;100896.16;;;11.22;64.47
59519;BME280;46994;54.976;73.404;2022-08-19T01:11:57;100887.69;;;11.00;65.03
59519;BME280;46994;54.976;73.404;2022-08-19T01:14:24;100887.50;;;10.85;65.68
59519;BME280;46994;54.976;73.404;2022-08-19T01:16:53;100882.91;;;10.70;65.82
59519;BME280;46994;54.976;73.404;2022-08-19T01:19:27;100880.59;;;10.32;66.84
59519;BME280;46994;54.976;73.404;2022-08-19T01:22:01;100891.22;;;10.50;67.14
59519;BME280;46994;54.976;73.404;2022-08-19T01:24:29;100870.84;;;10.31;68.85
59519;BME280;46994;54.976;73.404;2022-08-19T01:26:58;100873.50;;;10.23;68.33
59519;BME280;46994;54.976;73.404;2022-08-19T01:29:25;100870.09;;;10.21;68.67
59519;BME280;46994;54.976;73.404;2022-08-19T01:31:52;100876.63;;;10.19;68.54
59519;BME280;46994;54.976;73.404;2022-08-19T01:34:21;100844.81;;;9.90;68.91
59519;BME280;46994;54.976;73.404;2022-08-19T01:36:49;100874.94;;;9.92;69.55
59519;BME280;46994;54.976;73.404;2022-08-19T01:39:20;100880.28;;;9.92;69.44
59519;BME280;46994;54.976;73.404;2022-08-19T01:41:49;100885.41;;;10.03;71.07
59519;BME280;46994;54.976;73.404;2022-08-19T01:44:16;100885.16;;;10.14;69.81
59519;BME280;46994;54.976;73.404;2022-08-19T01:46:48;100879.91;;;10.04;69.58
59519;BME280;46994;54.976;73.404;2022-08-19T01:49:18;100872.47;;;9.98;69.35
59519;BME280;46994;54.976;73.404;2022-08-19T01:51:47;100871.81;;;10.22;69.06
59519;BME280;46994;54.976;73.404;2022-08-19T01:54:15;100889.94;;;10.28;69.00
59519;BME280;46994;54.976;73.404;2022-08-19T01:56:43;100884.22;;;10.23;68.80
59519;BME280;46994;54.976;73.404;2022-08-19T01:59:12;100861.09;;;10.22;68.78
59519;BME280;46994;54.976;73.404;2022-08-19T02:01:41;100881.00;;;10.46;68.66
59519;BME280;46994;54.976;73.404;2022-08-19T02:04:07;100882.00;;;10.45;68.26
59519;BME280;46994;54.976;73.404;2022-08-19T02:06:35;100862.22;;;10.20;68.35
59519;BME280;46994;54.976;73.404;2022-08-19T02:09:03;100879.91;;;10.30;69.21
59519;BME280;46994;54.976;73.404;2022-08-19T02:11:33;100868.88;;;10.33;70.36
59519;BME280;46994;54.976;73.404;2022-08-19T02:14:02;100879.97;;;10.47;68.53
59519;BME280;46994;54.976;73.404;2022-08-19T02:16:29;100861.69;;;10.34;68.16
59519;BME280;46994;54.976;73.404;2022-08-19T02:18:57;100873.56;;;10.40;67.70
59519;BME280;46994;54.976;73.404;2022-08-19T02:21:27;100869.84;;;10.24;68.39
59519;BME280;46994;54.976;73.404;2022-08-19T02:23:55;100872.94;;;10.46;68.19
59519;BME280;46994;54.976;73.404;2022-08-19T02:26:22;100855.75;;;10.56;70.13
59519;BME280;46994;54.976;73.404;2022-08-19T02:28:49;100851.22;;;10.57;67.63
59519;BME280;46994;54.976;73.404;2022-08-19T02:31:18;100868.50;;;10.62;67.64
59519;BME280;46994;54.976;73.404;2022-08-19T02:33:46;100852.41;;;10.62;67.60
59519;BME280;46994;54.976;73.404;2022-08-19T02:36:15;100884.94;;;10.68;67.52
59519;BME280;46994;54.976;73.404;2022-08-19T02:38:43;100859.72;;;10.44;67.42
59519;BME280;46994;54.976;73.404;2022-08-19T02:41:18;100876.63;;;10.45;68.20
59519;BME280;46994;54.976;73.404;2022-08-19T02:43:46;100872.78;;;10.47;67.16
59519;BME280;46994;54.976;73.404;2022-08-19T02:46:15;100883.28;;;10.75;67.00
59519;BME280;46994;54.976;73.404;2022-08-19T02:48:44;100897.72;;;10.82;66.67
59519;BME280;46994;54.976;73.404;2022-08-19T02:51:19;100885.13;;;10.74;66.46
59519;BME280;46994;54.976;73.404;2022-08-19T02:53:47;100877.50;;;10.53;67.38
59519;BME280;46994;54.976;73.404;2022-08-19T02:56:14;100875.50;;;10.55;68.13
59519;BME280;46994;54.976;73.404;2022-08-19T02:58:41;100886.16;;;10.89;66.83
59519;BME280;46994;54.976;73.404;2022-08-19T03:01:10;100876.31;;;10.98;67.09
59519;BME280;46994;54.976;73.404;2022-08-19T03:03:37;100881.34;;;10.93;66.07
59519;BME280;46994;54.976;73.404;2022-08-19T03:06:15;100890.53;;;10.82;66.17
59519;BME280;46994;54.976;73.404;2022-08-19T03:08:44;100895.34;;;10.79;67.20
59519;BME280;46994;54.976;73.404;2022-08-19T03:11:19;100875.72;;;10.70;67.65
59519;BME280;46994;54.976;73.404;2022-08-19T03:13:46;100885.81;;;10.76;66.32
59519;BME280;46994;54.976;73.404;2022-08-19T03:16:15;100888.09;;;10.71;66.74
59519;BME280;46994;54.976;73.404;2022-08-19T03:18:43;100887.09;;;10.64;66.82
59519;BME280;46994;54.976;73.404;2022-08-19T03:21:15;100890.16;;;10.77;67.18
59519;BME280;46994;54.976;73.404;2022-08-19T03:23:43;100882.31;;;10.84;66.91
59519;BME280;46994;54.976;73.404;2022-08-19T03:26:10;100881.88;;;11.05;65.90
59519;BME280;46994;54.976;73.404;2022-08-19T03:28:36;100882.22;;;11.18;64.54
59519;BME280;46994;54.976;73.404;2022-08-19T03:31:10;100883.75;;;11.37;67.12
59519;BME280;46994;54.976;73.404;2022-08-19T03:33:38;100895.34;;;11.54;65.67
59519;BME280;46994;54.976;73.404;2022-08-19T03:36:21;100893.81;;;11.59;66.16
59519;BME280;46994;54.976;73.404;2022-08-19T03:38:54;100876.38;;;11.55;64.04
59519;BME280;46994;54.976;73.404;2022-08-19T03:41:24;100883.91;;;11.60;63.92
59519;BME280;46994;54.976;73.404;2022-08-19T03:43:53;100883.59;;;11.63;66.46
59519;BME280;46994;54.976;73.404;2022-08-19T03:46:25;100883.25;;;11.66;65.82
59519;BME280;46994;54.976;73.404;2022-08-19T03:48:54;100876.03;;;11.58;63.96
59519;BME280;46994;54.976;73.404;2022-08-19T03:51:27;100879.72;;;11.57;62.79
59519;BME280;46994;54.976;73.404;2022-08-19T03:53:55;100881.94;;;11.62;65.60
59519;BME280;46994;54.976;73.404;2022-08-19T03:56:23;100871.34;;;11.52;64.29
59519;BME280;46994;54.976;73.404;2022-08-19T03:58:52;100864.47;;;11.66;64.57
59519;BME280;46994;54.976;73.404;2022-08-19T04:01:21;100878.22;;;11.63;63.17
59519;BME280;46994;54.976;73.404;2022-08-19T04:03:49;100889.31;;;11.52;63.52
59519;BME280;46994;54.976;73.404;2022-08-19T04:06:19;100896.19;;;11.54;63.88
59519;BME280;46994;54.976;73.404;2022-08-19T04:08:49;100864.63;;;11.32;63.87
59519;BME280;46994;54.976;73.404;2022-08-19T04:11:23;100862.94;;;11.47;62.91
59519;BME280;46994;54.976;73.404;2022-08-19T04:13:52;100875.72;;;11.61;64.63
59519;BME280;46994;54.976;73.404;2022-08-19T04:16:24;100845.34;;;11.44;63.44
59519;BME280;46994;54.976;73.404;2022-08-19T04:18:51;100869.47;;;11.69;63.04
59519;BME280;46994;54.976;73.404;2022-08-19T04:21:24;100875.56;;;11.71;63.52
59519;BME280;46994;54.976;73.404;2022-08-19T04:23:54;100884.31;;;11.81;62.77
59519;BME280;46994;54.976;73.404;2022-08-19T04:26:25;100870.00;;;11.97;63.46
59519;BME280;46994;54.976;73.404;2022-08-19T04:28:55;100839.97;;;11.85;63.86
59519;BME280;46994;54.976;73.404;2022-08-19T04:31:25;100879.41;;;12.48;63.16
59519;BME280;46994;54.976;73.404;2022-08-19T04:33:56;100861.91;;;12.60;61.51
59519;BME280;46994;54.976;73.404;2022-08-19T04:36:28;100872.88;;;12.90;60.73
59519;BME280;46994;54.976;73.404;2022-08-19T04:38:58;100876.47;;;12.74;60.61
59519;BME280;46994;54.976;73.404;2022-08-19T04:41:25;100881.75;;;12.59;61.02
59519;BME280;46994;54.976;73.404;2022-08-19T04:44:11;100855.97;;;12.34;61.32
59519;BME280;46994;54.976;73.404;2022-08-19T04:46:38;100870.25;;;12.34;61.61
59519;BME280;46994;54.976;73.404;2022-08-19T04:49:06;100859.63;;;12.49;60.52
59519;BME280;46994;54.976;73.404;2022-08-19T04:51:35;100871.69;;;12.53;63.09
59519;BME280;46994;54.976;73.404;2022-08-19T04:54:03;100880.16;;;13.04;60.88
59519;BME280;46994;54.976;73.404;2022-08-19T04:56:30;100886.41;;;13.05;59.20
59519;BME280;46994;54.976;73.404;2022-08-19T04:58:59;100858.88;;;12.95;61.89
59519;BME280;46994;54.976;73.404;2022-08-19T05:01:31;100859.97;;;13.39;58.57
59519;BME280;46994;54.976;73.404;2022-08-19T05:04:04;100865.34;;;13.39;58.30
59519;BME280;46994;54.976;73.404;2022-08-19T05:06:32;100862.06;;;13.29;58.37
59519;BME280;46994;54.976;73.404;2022-08-19T05:09:04;100858.81;;;13.34;58.83
59519;BME280;46994;54.976;73.404;2022-08-19T05:11:35;100858.91;;;13.17;57.91
59519;BME280;46994;54.976;73.404;2022-08-19T05:14:08;100839.53;;;12.99;58.42
59519;BME280;46994;54.976;73.404;2022-08-19T05:16:35;100850.06;;;13.09;58.52
59519;BME280;46994;54.976;73.404;2022-08-19T05:19:02;100851.59;;;13.03;58.49
59519;BME280;46994;54.976;73.404;2022-08-19T05:21:47;100858.59;;;13.20;59.15
59519;BME280;46994;54.976;73.404;2022-08-19T05:24:33;100863.13;;;13.20;57.85
59519;BME280;46994;54.976;73.404;2022-08-19T05:27:01;100853.84;;;13.23;58.04
59519;BME280;46994;54.976;73.404;2022-08-19T05:29:29;100844.50;;;13.33;57.08
59519;BME280;46994;54.976;73.404;2022-08-19T05:31:58;100841.34;;;13.30;57.56
59519;BME280;46994;54.976;73.404;2022-08-19T05:34:26;100836.19;;;13.43;58.89
59519;BME280;46994;54.976;73.404;2022-08-19T05:36:56;100840.00;;;13.71;56.87
59519;BME280;46994;54.976;73.404;2022-08-19T05:39:28;100840.03;;;14.01;57.21
59519;BME280;46994;54.976;73.404;2022-08-19T05:42:02;100835.28;;;14.03;57.15
59519;BME280;46994;54.976;73.404;2022-08-19T05:44:31;100830.19;;;14.08;56.39
59519;BME280;46994;54.976;73.404;2022-08-19T05:47:00;100817.06;;;14.34;57.29
59519;BME280;46994;54.976;73.404;2022-08-19T05:49:28;100819.03;;;14.55;55.36
59519;BME280;46994;54.976;73.404;2022-08-19T05:51:55;100808.94;;;14.64;55.59
59519;BME280;46994;54.976;73.404;2022-08-19T05:54:23;100834.78;;;14.73;54.58
59519;BME280;46994;54.976;73.404;2022-08-19T05:56:51;100822.09;;;14.67;54.45
59519;BME280;46994;54.976;73.404;2022-08-19T05:59:19;100828.88;;;14.63;54.66
59519;BME280;46994;54.976;73.404;2022-08-19T06:01:49;100810.09;;;14.55;54.08
59519;BME280;46994;54.976;73.404;2022-08-19T06:04:21;100805.34;;;14.42;54.63
59519;BME280;46994;54.976;73.404;2022-08-19T06:06:51;100822.88;;;14.46;55.25
59519;BME280;46994;54.976;73.404;2022-08-19T06:09:19;100813.63;;;14.41;55.15
59519;BME280;46994;54.976;73.404;2022-08-19T06:11:49;100816.50;;;14.39;55.45
59519;BME280;46994;54.976;73.404;2022-08-19T06:14:22;100806.84;;;14.45;55.21
59519;BME280;46994;54.976;73.404;2022-08-19T06:16:49;100807.09;;;14.64;55.00
59519;BME280;46994;54.976;73.404;2022-08-19T06:19:20;100806.78;;;14.74;55.16
59519;BME280;46994;54.976;73.404;2022-08-19T06:21:49;100796.47;;;14.78;54.88
59519;BME280;46994;54.976;73.404;2022-08-19T06:24:20;100807.16;;;14.86;54.11
59519;BME280;46994;54.976;73.404;2022-08-19T06:26:52;100773.41;;;14.75;54.88
59519;BME280;46994;54.976;73.404;2022-08-19T06:29:23;100783.38;;;14.96;54.17
59519;BME280;46994;54.976;73.404;2022-08-19T06:31:55;100801.38;;;15.10;53.64
59519;BME280;46994;54.976;73.404;2022-08-19T06:34:23;100788.38;;;15.20;54.46
59519;BME280;46994;54.976;73.404;2022-08-19T06:36:51;100789.97;;;15.36;54.24
59519;BME280;46994;54.976;73.404;2022-08-19T06:39:31;100770.47;;;15.41;52.91
59519;BME280;46994;54.976;73.404;2022-08-19T06:42:01;100784.22;;;15.67;53.40
59519;BME280;46994;54.976;73.404;2022-08-19T06:44:30;100786.94;;;15.67;52.98
59519;BME280;46994;54.976;73.404;2022-08-19T06:47:03;100791.25;;;15.62;52.86
59519;BME280;46994;54.976;73.404;2022-08-19T06:49:31;100794.41;;;15.65;52.58
59519;BME280;46994;54.976;73.404;2022-08-19T06:51:59;100779.06;;;15.51;52.33
59519;BME280;46994;54.976;73.404;2022-08-19T06:54:27;100765.03;;;15.34;52.72
59519;BME280;46994;54.976;73.404;2022-08-19T06:56:57;100784.41;;;15.16;53.60
59519;BME280;46994;54.976;73.404;2022-08-19T06:59:24;100792.88;;;15.13;54.18
59519;BME280;46994;54.976;73.404;2022-08-19T07:01:56;100758.50;;;14.79;54.37
59519;BME280;46994;54.976;73.404;2022-08-19T07:04:25;100767.63;;;14.78;54.77
59519;BME280;46994;54.976;73.404;2022-08-19T07:07:00;100767.09;;;14.68;55.30
59519;BME280;46994;54.976;73.404;2022-08-19T07:09:28;100786.09;;;14.60;56.14
59519;BME280;46994;54.976;73.404;2022-08-19T07:11:55;100783.97;;;14.55;56.50
59519;BME280;46994;54.976;73.404;2022-08-19T07:14:25;100780.69;;;14.60;56.60
59519;BME280;46994;54.976;73.404;2022-08-19T07:16:54;100785.63;;;14.56;56.42
59519;BME280;46994;54.976;73.404;2022-08-19T07:19:25;100776.50;;;14.43;56.46
59519;BME280;46994;54.976;73.404;2022-08-19T07:21:54;100772.63;;;14.30;57.05
59519;BME280;46994;54.976;73.404;2022-08-19T07:24:23;100781.09;;;14.27;57.47
59519;BME280;46994;54.976;73.404;2022-08-19T07:26:53;100794.56;;;14.13;58.99
59519;BME280;46994;54.976;73.404;2022-08-19T07:29:21;100772.75;;;13.93;59.70
59519;BME280;46994;54.976;73.404;2022-08-19T07:31:52;100803.69;;;13.97;60.62
59519;BME280;46994;54.976;73.404;2022-08-19T07:34:21;100800.03;;;13.75;61.55
59519;BME280;46994;54.976;73.404;2022-08-19T07:36:49;100777.06;;;13.49;62.06
59519;BME280;46994;54.976;73.404;2022-08-19T07:39:22;100804.09;;;13.56;62.52
59519;BME280;46994;54.976;73.404;2022-08-19T07:41:50;100808.81;;;13.39;63.23
59519;BME280;46994;54.976;73.404;2022-08-19T07:44:18;100779.13;;;13.25;62.95
59519;BME280;46994;54.976;73.404;2022-08-19T07:46:48;100778.03;;;13.34;62.70
59519;BME280;46994;54.976;73.404;2022-08-19T07:49:17;100789.06;;;13.47;62.18
59519;BME280;46994;54.976;73.404;2022-08-19T07:51:48;100778.56;;;13.52;61.89
59519;BME280;46994;54.976;73.404;2022-08-19T07:54:16;100777.91;;;13.65;61.31
59519;BME280;46994;54.976;73.404;2022-08-19T07:56:43;100791.78;;;13.76;60.95
59519;BME280;46994;54.976;73.404;2022-08-19T07:59:10;100775.63;;;13.91;60.15
59519;BME280;46994;54.976;73.404;2022-08-19T08:01:38;100782.22;;;14.18;59.77
59519;BME280;46994;54.976;73.404;2022-08-19T08:04:06;100776.53;;;14.28;58.79
59519;BME280;46994;54.976;73.404;2022-08-19T08:06:52;100782.84;;;14.35;59.64
59519;BME280;46994;54.976;73.404;2022-08-19T08:09:41;100778.84;;;14.31;58.24
59519;BME280;46994;54.976;73.404;2022-08-19T08:12:20;100782.84;;;14.35;58.26
59519;BME280;46994;54.976;73.404;2022-08-19T08:14:56;100775.31;;;14.30;58.56
59519;BME280;46994;54.976;73.404;2022-08-19T08:17:25;100765.56;;;14.29;58.64
59519;BME280;46994;54.976;73.404;2022-08-19T08:19:53;100769.47;;;14.27;58.33
59519;BME280;46994;54.976;73.404;2022-08-19T08:22:22;100755.31;;;14.25;58.43
59519;BME280;46994;54.976;73.404;2022-08-19T08:25:15;100757.47;;;14.29;58.05
59519;BME280;46994;54.976;73.404;2022-08-19T08:27:44;100749.88;;;14.18;58.28
59519;BME280;46994;54.976;73.404;2022-08-19T08:30:23;100748.22;;;14.17;58.46
59519;BME280;46994;54.976;73.404;2022-08-19T08:32:51;100764.09;;;14.27;58.69
59519;BME280;46994;54.976;73.404;2022-08-19T08:35:20;100756.34;;;14.39;59.15
59519;BME280;46994;54.976;73.404;2022-08-19T08:37:50;100772.78;;;14.58;58.39
59519;BME280;46994;54.976;73.404;2022-08-19T08:40:30;100754.03;;;14.50;58.07
59519;BME280;46994;54.976;73.404;2022-08-19T08:43:13;100764.13;;;14.63;58.02
59519;BME280;46994;54.976;73.404;2022-08-19T08:45:50;100767.22;;;14.60;58.26
59519;BME280;46994;54.976;73.404;2022-08-19T08:51:09;100761.88;;;14.67;58.63
59519;BME280;46994;54.976;73.404;2022-08-19T08:53:38;100747.88;;;14.56;58.86
59519;BME280;46994;54.976;73.404;2022-08-19T08:56:06;100735.53;;;14.47;58.47
59519;BME280;46994;54.976;73.404;2022-08-19T08:58:54;100740.00;;;14.76;58.25
59519;BME280;46994;54.976;73.404;2022-08-19T09:01:23;100737.09;;;14.78;58.39
59519;BME280;46994;54.976;73.404;2022-08-19T09:03:50;100748.53;;;14.80;58.80
59519;BME280;46994;54.976;73.404;2022-08-19T09:06:54;100736.72;;;14.81;58.10
59519;BME280;46994;54.976;73.404;2022-08-19T09:09:32;100738.38;;;14.82;58.49
59519;BME280;46994;54.976;73.404;2022-08-19T09:12:10;100760.28;;;14.93;58.69
59519;BME280;46994;54.976;73.404;2022-08-19T09:15:04;100749.94;;;14.76;59.50
59519;BME280;46994;54.976;73.404;2022-08-19T09:17:32;100739.94;;;14.55;59.50
59519;BME280;46994;54.976;73.404;2022-08-19T09:22:37;100722.03;;;14.47;59.49
59519;BME280;46994;54.976;73.404;2022-08-19T09:25:08;100739.47;;;14.66;59.75
59519;BME280;46994;54.976;73.404;2022-08-19T09:27:37;100719.47;;;14.60;59.89
59519;BME280;46994;54.976;73.404;2022-08-19T09:30:06;100738.56;;;14.80;59.61
59519;BME280;46994;54.976;73.404;2022-08-19T09:32:33;100739.16;;;14.76;60.05
59519;BME280;46994;54.976;73.404;2022-08-19T09:35:00;100715.13;;;14.59;60.53
59519;BME280;46994;54.976;73.404;2022-08-19T09:37:27;100726.44;;;14.70;60.57
59519;BME280;46994;54.976;73.404;2022-08-19T09:39:54;100721.97;;;14.62;61.22
59519;BME280;46994;54.976;73.404;2022-08-19T09:42:21;100679.81;;;14.40;61.02
59519;BME280;46994;54.976;73.404;2022-08-19T09:44:48;100669.06;;;14.25;61.32
59519;BME280;46994;54.976;73.404;2022-08-19T09:47:15;100712.81;;;14.42;60.57
59519;BME280;46994;54.976;73.404;2022-08-19T09:49:42;100719.16;;;14.49;61.68
59519;BME280;46994;54.976;73.404;2022-08-19T09:52:09;100726.94;;;14.58;61.80
59519;BME280;46994;54.976;73.404;2022-08-19T09:54:38;100727.31;;;14.41;62.51
59519;BME280;46994;54.976;73.404;2022-08-19T09:57:05;100725.97;;;14.30;62.68
59519;BME280;46994;54.976;73.404;2022-08-19T09:59:32;100707.09;;;14.15;63.19
59519;BME280;46994;54.976;73.404;2022-08-19T10:02:00;100711.50;;;14.16;63.16
59519;BME280;46994;54.976;73.404;2022-08-19T10:04:27;100717.03;;;14.15;64.08
59519;BME280;46994;54.976;73.404;2022-08-19T10:07:14;100715.03;;;14.02;65.02
59519;BME280;46994;54.976;73.404;2022-08-19T10:09:41;100724.44;;;13.91;66.36
59519;BME280;46994;54.976;73.404;2022-08-19T10:12:08;100710.22;;;13.68;67.53
59519;BME280;46994;54.976;73.404;2022-08-19T10:14:36;100720.59;;;13.56;67.97
59519;BME280;46994;54.976;73.404;2022-08-19T10:17:04;100722.72;;;13.46;70.32
59519;BME280;46994;54.976;73.404;2022-08-19T10:19:30;100728.13;;;13.46;71.63
59519;BME280;46994;54.976;73.404;2022-08-19T10:22:04;100718.38;;;13.45;72.66
59519;BME280;46994;54.976;73.404;2022-08-19T10:24:31;100718.38;;;13.45;73.16
59519;BME280;46994;54.976;73.404;2022-08-19T10:26:59;100713.56;;;13.40;72.90
59519;BME280;46994;54.976;73.404;2022-08-19T10:29:27;100715.09;;;13.35;74.39
59519;BME280;46994;54.976;73.404;2022-08-19T10:31:54;100721.06;;;13.30;74.34
59519;BME280;46994;54.976;73.404;2022-08-19T10:34:22;100716.56;;;13.23;74.86
59519;BME280;46994;54.976;73.404;2022-08-19T10:36:49;100728.56;;;13.20;75.90
59519;BME280;46994;54.976;73.404;2022-08-19T10:39:17;100721.72;;;13.09;76.96
59519;BME280;46994;54.976;73.404;2022-08-19T10:41:44;100720.13;;;13.15;76.72
59519;BME280;46994;54.976;73.404;2022-08-19T10:44:12;100707.69;;;13.14;75.37
59519;BME280;46994;54.976;73.404;2022-08-19T10:46:41;100714.75;;;13.38;74.38
59519;BME280;46994;54.976;73.404;2022-08-19T10:49:11;100714.00;;;13.44;74.93
59519;BME280;46994;54.976;73.404;2022-08-19T10:51:39;100701.09;;;13.39;74.38
59519;BME280;46994;54.976;73.404;2022-08-19T10:54:25;100723.97;;;13.58;73.75
59519;BME280;46994;54.976;73.404;2022-08-19T10:57:12;100707.69;;;13.37;70.66
59519;BME280;46994;54.976;73.404;2022-08-19T10:59:38;100722.38;;;13.49;74.63
59519;BME280;46994;54.976;73.404;2022-08-19T11:02:09;100699.72;;;13.43;74.97
59519;BME280;46994;54.976;73.404;2022-08-19T11:04:38;100709.19;;;13.39;75.12
59519;BME280;46994;54.976;73.404;2022-08-19T11:07:05;100710.56;;;13.35;75.39
59519;BME280;46994;54.976;73.404;2022-08-19T11:09:37;100694.97;;;13.31;75.70
59519;BME280;46994;54.976;73.404;2022-08-19T11:12:09;100713.28;;;13.50;74.06
59519;BME280;46994;54.976;73.404;2022-08-19T11:14:36;100722.94;;;13.59;74.20
59519;BME280;46994;54.976;73.404;2022-08-19T11:17:04;100717.94;;;13.71;74.87
59519;BME280;46994;54.976;73.404;2022-08-19T11:19:34;100716.44;;;13.83;73.61
59519;BME280;46994;54.976;73.404;2022-08-19T11:22:01;100731.56;;;13.84;73.01
59519;BME280;46994;54.976;73.404;2022-08-19T11:24:29;100718.56;;;13.73;73.96
59519;BME280;46994;54.976;73.404;2022-08-19T11:27:04;100722.47;;;13.70;74.42
59519;BME280;46994;54.976;73.404;2022-08-19T11:29:32;100719.03;;;13.62;74.48
59519;BME280;46994;54.976;73.404;2022-08-19T11:32:04;100715.88;;;13.58;74.79
59519;BME280;46994;54.976;73.404;2022-08-19T11:34:31;100726.28;;;13.61;74.54
59519;BME280;46994;54.976;73.404;2022-08-19T11:36:58;100717.56;;;13.59;74.75
59519;BME280;46994;54.976;73.404;2022-08-19T11:39:28;100719.50;;;13.65;73.65
59519;BME280;46994;54.976;73.404;2022-08-19T11:41:57;100723.31;;;13.71;74.60
59519;BME280;46994;54.976;73.404;2022-08-19T11:44:24;100713.84;;;13.60;74.50
59519;BME280;46994;54.976;73.404;2022-08-19T11:46:52;100717.47;;;13.67;73.86
59519;BME280;46994;54.976;73.404;2022-08-19T11:49:19;100699.25;;;13.55;74.43
59519;BME280;46994;54.976;73.404;2022-08-19T11:51:48;100697.22;;;13.42;74.53
59519;BME280;46994;54.976;73.404;2022-08-19T11:54:17;100708.09;;;13.48;75.04
59519;BME280;46994;54.976;73.404;2022-08-19T11:56:44;100711.88;;;13.54;75.33
59519;BME280;46994;54.976;73.404;2022-08-19T11:59:12;100719.34;;;13.67;74.91
59519;BME280;46994;54.976;73.404;2022-08-19T12:01:39;100704.66;;;13.69;72.78
59519;BME280;46994;54.976;73.404;2022-08-19T12:04:10;100706.88;;;13.66;74.27
59519;BME280;46994;54.976;73.404;2022-08-19T12:06:38;100721.16;;;13.66;74.04
59519;BME280;46994;54.976;73.404;2022-08-19T12:09:07;100717.19;;;13.62;74.97
59519;BME280;46994;54.976;73.404;2022-08-19T12:11:37;100702.59;;;13.71;74.05
59519;BME280;46994;54.976;73.404;2022-08-19T12:14:05;100705.28;;;13.71;74.61
59519;BME280;46994;54.976;73.404;2022-08-19T12:16:32;100716.81;;;13.65;75.15
59519;BME280;46994;54.976;73.404;2022-08-19T12:18:59;100709.56;;;13.51;75.68
59519;BME280;46994;54.976;73.404;2022-08-19T12:21:32;100692.38;;;13.37;75.75
59519;BME280;46994;54.976;73.404;2022-08-19T12:24:01;100690.53;;;13.38;74.23
59519;BME280;46994;54.976;73.404;2022-08-19T12:26:29;100707.41;;;13.46;75.64
59519;BME280;46994;54.976;73.404;2022-08-19T12:28:58;100704.25;;;13.43;75.74
59519;BME280;46994;54.976;73.404;2022-08-19T12:31:29;100717.16;;;13.33;76.84
59519;BME280;46994;54.976;73.404;2022-08-19T12:33:56;100719.56;;;13.28;77.24
59519;BME280;46994;54.976;73.404;2022-08-19T12:36:24;100708.31;;;13.24;77.32
59519;BME280;46994;54.976;73.404;2022-08-19T12:38:52;100718.63;;;13.35;77.38
59519;BME280;46994;54.976;73.404;2022-08-19T12:41:20;100710.03;;;13.40;77.71
59519;BME280;46994;54.976;73.404;2022-08-19T12:43:49;100703.81;;;13.39;76.86
59519;BME280;46994;54.976;73.404;2022-08-19T12:46:17;100698.59;;;13.38;77.40
59519;BME280;46994;54.976;73.404;2022-08-19T12:48:45;100698.13;;;13.34;76.76
59519;BME280;46994;54.976;73.404;2022-08-19T12:51:17;100703.63;;;13.41;77.01
59519;BME280;46994;54.976;73.404;2022-08-19T12:53:46;100705.16;;;13.35;77.36
59519;BME280;46994;54.976;73.404;2022-08-19T12:56:13;100712.72;;;13.40;77.81
59519;BME280;46994;54.976;73.404;2022-08-19T12:58:42;100709.72;;;13.35;78.63
59519;BME280;46994;54.976;73.404;2022-08-19T13:01:12;100703.22;;;13.29;78.88